Aviation Digital Data Service (ADDS)

Output produced by METARs form (0403 UTC 24 May 2017)
found at http://aviationweather.gov/adds/metars/
 
KPHL 240336Z 2404/2506 07005KT P6SM OVC090 
     TEMPO 2405/2408 5SM -SHRA OVC030 
     FM241200 05007KT P6SM BKN060 
     FM242100 10006KT P6SM BKN040